createdAt,value
2023-03-25T00:01:09.153Z,1.83
2023-03-25T00:06:12.850Z,1.90
2023-03-25T00:11:15.521Z,2.00
2023-03-25T00:16:20.050Z,2.05
2023-03-25T00:21:23.381Z,2.20
2023-03-25T00:26:30.173Z,1.88
2023-03-25T00:31:34.630Z,1.70
2023-03-25T00:36:38.162Z,1.63
2023-03-25T00:41:42.063Z,1.90
2023-03-25T00:46:46.286Z,1.67
2023-03-25T00:51:53.302Z,2.05
2023-03-25T00:56:57.185Z,2.10
2023-03-25T01:02:02.912Z,2.03
2023-03-25T01:07:05.703Z,1.88
2023-03-25T01:12:08.897Z,1.77
2023-03-25T01:17:12.857Z,1.75
2023-03-25T01:22:15.415Z,1.92
2023-03-25T01:27:18.075Z,1.67
2023-03-25T01:32:22.005Z,1.77
2023-03-25T01:37:25.629Z,1.80
2023-03-25T01:42:28.224Z,1.50
2023-03-25T01:47:33.346Z,1.65
2023-03-25T01:52:36.232Z,1.90
2023-03-25T01:57:43.782Z,1.58
2023-03-25T02:02:47.891Z,1.63
2023-03-25T02:07:50.677Z,2.15
2023-03-25T02:12:53.279Z,2.42
2023-03-25T02:18:03.205Z,2.55
2023-03-25T02:23:29.448Z,2.50
2023-03-25T02:28:36.405Z,2.45
2023-03-25T02:33:48.268Z,2.28
2023-03-25T02:38:54.218Z,2.20
2023-03-25T02:44:02.921Z,2.35
2023-03-25T02:49:08.039Z,2.00
2023-03-25T02:54:16.129Z,2.30
2023-03-25T02:59:19.510Z,1.70
2023-03-25T03:04:22.172Z,2.10
2023-03-25T03:09:39.012Z,1.90
2023-03-25T03:14:50.067Z,2.22
2023-03-25T03:19:54.172Z,1.92
2023-03-25T03:25:02.513Z,1.90
2023-03-25T03:30:06.716Z,2.08
2023-03-25T03:35:11.174Z,1.52
2023-03-25T03:40:17.753Z,1.70
2023-03-25T03:45:23.473Z,1.40
2023-03-25T03:50:27.940Z,1.60
2023-03-25T03:55:37.895Z,1.60
2023-03-25T04:00:43.249Z,1.23
2023-03-25T04:05:50.107Z,1.40
2023-03-25T04:10:59.369Z,1.10
2023-03-25T04:16:02.723Z,0.90
2023-03-25T04:21:05.597Z,0.90
2023-03-25T04:26:09.594Z,1.70
2023-03-25T04:31:15.609Z,1.00
2023-03-25T04:36:18.629Z,0.90
2023-03-25T04:41:22.579Z,0.75
2023-03-25T04:46:25.456Z,1.08
2023-03-25T04:51:28.146Z,1.10
2023-03-25T04:56:32.125Z,1.10
2023-03-25T05:01:38.032Z,0.80
2023-03-25T05:06:41.705Z,0.73
2023-03-25T05:11:46.511Z,1.15
2023-03-25T05:16:49.597Z,0.60
2023-03-25T05:21:52.308Z,0.60
2023-03-25T05:26:56.373Z,0.55
2023-03-25T05:31:58.936Z,0.40
2023-03-25T05:37:01.583Z,0.30
2023-03-25T05:42:05.874Z,0.50
2023-03-25T05:47:08.441Z,0.40
2023-03-25T05:52:11.961Z,0.45
2023-03-25T05:57:16.097Z,0.40
2023-03-25T06:02:18.813Z,0.40
2023-03-25T06:07:22.289Z,0.55
2023-03-25T06:12:27.588Z,0.30
2023-03-25T06:17:30.266Z,0.43
2023-03-25T06:22:34.157Z,0.50
2023-03-25T06:27:40.581Z,0.50
2023-03-25T06:32:43.285Z,0.68
2023-03-25T06:37:46.950Z,0.40
2023-03-25T06:42:59.626Z,0.60
2023-03-25T06:48:28.068Z,0.40
2023-03-25T06:53:30.647Z,0.40
2023-03-25T06:58:35.633Z,0.40
2023-03-25T07:03:38.558Z,0.68
2023-03-25T07:08:41.202Z,0.65
2023-03-25T07:13:45.665Z,0.43
2023-03-25T07:18:48.417Z,0.50
2023-03-25T07:23:51.176Z,0.80
2023-03-25T07:28:55.310Z,0.43
2023-03-25T07:33:59.726Z,0.60
2023-03-25T07:39:03.053Z,0.50
2023-03-25T07:44:07.130Z,0.43
2023-03-25T07:49:12.335Z,0.52
2023-03-25T07:54:15.084Z,0.50
2023-03-25T07:59:19.337Z,0.30
2023-03-25T08:04:22.025Z,0.32
2023-03-25T08:09:24.873Z,0.50
2023-03-25T08:14:28.985Z,0.68
2023-03-25T08:19:31.547Z,0.75
2023-03-25T08:24:34.091Z,0.40
2023-03-25T08:29:38.329Z,0.30
2023-03-25T08:34:41.050Z,0.40
2023-03-25T08:39:45.573Z,0.47
2023-03-25T08:44:49.450Z,0.30
2023-03-25T08:49:52.054Z,0.38
2023-03-25T08:54:54.770Z,0.40
2023-03-25T08:59:58.709Z,0.40
2023-03-25T09:05:01.314Z,0.68
2023-03-25T09:10:04.258Z,0.50
2023-03-25T09:15:09.472Z,0.32
2023-03-25T09:20:12.572Z,0.38
2023-03-25T09:25:15.219Z,0.55
2023-03-25T09:30:19.292Z,0.50
2023-03-25T09:35:21.863Z,0.52
2023-03-25T09:40:24.688Z,0.30
2023-03-25T09:45:33.391Z,0.40
2023-03-25T09:50:36.528Z,0.40
2023-03-25T09:55:41.098Z,0.47
2023-03-25T10:00:46.268Z,0.30
2023-03-25T10:06:04.121Z,0.35
2023-03-25T10:11:09.295Z,0.40
2023-03-25T10:16:18.016Z,0.28
2023-03-25T10:21:24.703Z,0.30
2023-03-25T10:26:29.829Z,0.38
2023-03-25T10:31:36.015Z,0.30
2023-03-25T10:36:40.249Z,0.35
2023-03-25T10:41:43.453Z,0.38
2023-03-25T10:46:49.060Z,0.30
2023-03-25T10:51:53.832Z,0.40
2023-03-25T10:56:57.449Z,0.65
2023-03-25T11:02:02.290Z,0.55
2023-03-25T11:07:08.052Z,0.30
2023-03-25T11:12:10.645Z,0.50
2023-03-25T11:17:16.722Z,0.40
2023-03-25T11:22:20.334Z,0.30
2023-03-25T11:27:24.498Z,0.57
2023-03-25T11:32:33.968Z,0.43
2023-03-25T11:37:38.756Z,0.80
2023-03-25T11:42:42.853Z,0.30
2023-03-25T11:47:47.108Z,0.30
2023-03-25T11:52:51.538Z,0.63
2023-03-25T11:57:56.353Z,0.43
2023-03-25T12:03:05.183Z,0.50
2023-03-25T12:08:18.704Z,0.50
2023-03-25T12:13:31.059Z,0.35
2023-03-25T12:18:46.510Z,0.30
2023-03-25T12:23:56.454Z,0.40
2023-03-25T12:29:21.353Z,0.43
2023-03-25T12:34:30.807Z,0.45
2023-03-25T12:39:43.890Z,0.40
2023-03-25T12:44:52.266Z,0.40
2023-03-25T12:50:02.943Z,0.40
2023-03-25T12:55:21.922Z,0.47
2023-03-25T13:00:39.070Z,0.60
2023-03-25T13:05:46.775Z,0.50
2023-03-25T13:10:52.039Z,0.50
2023-03-25T13:15:58.446Z,0.47
2023-03-25T13:21:09.110Z,0.55
2023-03-25T13:26:18.766Z,0.70
2023-03-25T13:31:23.098Z,0.30
2023-03-25T13:36:30.080Z,0.40
2023-03-25T13:41:35.341Z,0.30
2023-03-25T13:46:40.583Z,0.40
2023-03-25T13:51:44.579Z,0.25
2023-03-25T13:56:58.161Z,0.40
2023-03-25T14:02:09.695Z,0.40
2023-03-25T14:07:26.322Z,0.47
2023-03-25T14:12:31.606Z,0.50
2023-03-25T14:17:35.760Z,0.45
2023-03-25T14:22:43.739Z,0.40
2023-03-25T14:27:49.316Z,0.40
2023-03-25T14:32:52.244Z,0.40
2023-03-25T14:37:56.595Z,0.43
2023-03-25T14:43:00.321Z,0.50
2023-03-25T14:48:19.339Z,0.52
2023-03-25T14:53:29.051Z,0.65
2023-03-25T14:58:31.983Z,0.55
2023-03-25T15:03:36.003Z,0.73
2023-03-25T15:08:40.868Z,0.57
2023-03-25T15:13:46.745Z,0.65
2023-03-25T15:18:59.763Z,0.55
2023-03-25T15:24:07.512Z,0.63
2023-03-25T15:29:27.890Z,0.60
2023-03-25T15:34:41.304Z,0.82
2023-03-25T15:39:59.832Z,0.70
2023-03-25T15:45:13.290Z,0.55
2023-03-25T15:50:24.649Z,0.50
2023-03-25T15:55:30.329Z,0.60
2023-03-25T16:00:34.241Z,0.70
2023-03-25T16:05:38.239Z,0.55
2023-03-25T16:10:44.704Z,0.50
2023-03-25T16:15:47.450Z,0.60
2023-03-25T16:20:54.916Z,0.47
2023-03-25T16:25:58.849Z,0.50
2023-03-25T16:31:02.754Z,0.43
2023-03-25T16:36:06.913Z,0.50
2023-03-25T16:41:13.068Z,0.60
2023-03-25T16:46:16.219Z,0.63
2023-03-25T16:51:21.976Z,0.50
2023-03-25T16:56:29.061Z,0.60
2023-03-25T17:01:33.712Z,0.60
2023-03-25T17:06:39.311Z,0.40
2023-03-25T17:11:45.564Z,0.90
2023-03-25T17:16:50.676Z,0.90
2023-03-25T17:22:00.666Z,1.00
2023-03-25T17:27:07.340Z,0.60
2023-03-25T17:32:17.906Z,2.00
2023-03-25T17:37:21.550Z,0.80
2023-03-25T17:42:26.748Z,0.98
2023-03-25T17:47:29.342Z,0.75
2023-03-25T17:52:32.157Z,0.55
2023-03-25T17:57:37.530Z,0.60
2023-03-25T18:02:40.907Z,0.63
2023-03-25T18:07:43.620Z,0.60
2023-03-25T18:12:47.832Z,0.65
2023-03-25T18:17:53.285Z,0.50
2023-03-25T18:22:56.366Z,0.70
2023-03-25T18:28:00.417Z,0.50
2023-03-25T18:33:03.019Z,1.02
2023-03-25T18:38:05.922Z,1.90
2023-03-25T18:43:09.827Z,0.40
2023-03-25T18:48:12.963Z,0.40
2023-03-25T18:53:15.587Z,0.50
2023-03-25T18:58:20.501Z,0.50
2023-03-25T19:03:30.303Z,0.68
2023-03-25T19:08:34.818Z,0.52
2023-03-25T19:13:38.810Z,0.40
2023-03-25T19:18:41.394Z,0.50
2023-03-25T19:23:44.154Z,0.45
2023-03-25T19:28:48.151Z,0.30
2023-03-25T19:33:51.993Z,0.50
2023-03-25T19:38:58.736Z,0.60
2023-03-25T19:44:02.698Z,0.47
2023-03-25T19:49:05.487Z,0.82
2023-03-25T19:54:13.463Z,0.40
2023-03-25T19:59:18.220Z,0.82
2023-03-25T20:04:20.878Z,0.47
2023-03-25T20:09:23.696Z,0.50
2023-03-25T20:14:27.855Z,0.50
2023-03-25T20:19:30.746Z,0.50
2023-03-25T20:24:33.478Z,0.30
2023-03-25T20:29:38.005Z,0.85
2023-03-25T20:34:40.601Z,0.40
2023-03-25T20:39:43.412Z,0.73
2023-03-25T20:44:47.771Z,0.75
2023-03-25T20:49:50.329Z,0.68
2023-03-25T20:54:53.410Z,0.80
2023-03-25T20:59:58.221Z,0.73
2023-03-25T21:05:02.746Z,0.60
2023-03-25T21:10:06.819Z,0.82
2023-03-25T21:15:12.049Z,0.80
2023-03-25T21:20:14.950Z,0.60
2023-03-25T21:25:18.202Z,0.75
2023-03-25T21:30:22.504Z,0.80
2023-03-25T21:35:25.179Z,1.00
2023-03-25T21:40:28.193Z,0.75
2023-03-25T21:45:44.041Z,0.80
2023-03-25T21:50:47.389Z,0.65
2023-03-25T21:55:50.354Z,0.43
2023-03-25T22:00:57.872Z,0.90
2023-03-25T22:06:02.946Z,0.70
2023-03-25T22:11:06.382Z,0.63
2023-03-25T22:16:11.333Z,0.60
2023-03-25T22:21:15.494Z,0.70
2023-03-25T22:26:19.188Z,0.85
2023-03-25T22:31:26.218Z,0.60
2023-03-25T22:36:29.311Z,0.70
2023-03-25T22:41:32.256Z,0.88
2023-03-25T22:46:36.237Z,0.70
2023-03-25T22:51:38.939Z,0.70
2023-03-25T22:56:43.438Z,0.70
2023-03-25T23:01:47.596Z,0.68
2023-03-25T23:07:04.588Z,0.77
2023-03-25T23:12:11.430Z,0.65
2023-03-25T23:17:15.442Z,0.65
2023-03-25T23:22:18.210Z,0.70
2023-03-25T23:27:20.914Z,0.70
2023-03-25T23:32:24.896Z,0.80
2023-03-25T23:37:27.618Z,0.70
2023-03-25T23:42:35.668Z,0.73
2023-03-25T23:47:40.074Z,0.90
2023-03-25T23:52:42.848Z,0.70
2023-03-25T23:57:45.526Z,0.85
